createdAt,value
2018-08-17T00:00:18.366Z,18.09
2018-08-17T00:00:57.368Z,18.05
2018-08-17T00:01:57.369Z,18.07
2018-08-17T00:04:29.119Z,18.04
2018-08-17T00:05:31.065Z,18.02
2018-08-17T00:06:29.126Z,18.10
2018-08-17T00:07:28.599Z,18.11
2018-08-17T00:10:03.790Z,18.17
2018-08-17T00:11:02.320Z,18.07
2018-08-17T00:12:00.857Z,18.04
2018-08-17T00:13:15.373Z,17.87
2018-08-17T00:14:22.403Z,17.87
2018-08-17T00:15:02.842Z,17.89
2018-08-17T00:17:34.537Z,17.77
2018-08-17T00:18:48.542Z,17.84
2018-08-17T00:19:34.542Z,17.74
2018-08-17T00:20:49.039Z,17.77
2018-08-17T00:21:57.042Z,17.71
2018-08-17T00:22:35.041Z,17.76
2018-08-17T00:23:41.042Z,17.77
2018-08-17T00:24:36.974Z,17.71
2018-08-17T00:25:37.541Z,17.80
2018-08-17T00:26:49.545Z,17.76
2018-08-17T00:27:56.002Z,17.76
2018-08-17T00:29:03.041Z,17.77
2018-08-17T00:31:21.428Z,17.77
2018-08-17T00:32:21.435Z,17.73
2018-08-17T00:33:28.435Z,17.80
2018-08-17T00:34:28.950Z,17.76
2018-08-17T00:35:28.935Z,17.66
2018-08-17T00:36:28.938Z,17.68
2018-08-17T00:37:28.936Z,17.70
2018-08-17T00:39:39.695Z,17.62
2018-08-17T00:42:11.203Z,17.55
2018-08-17T00:43:11.204Z,17.66
2018-08-17T00:44:11.209Z,17.58
2018-08-17T00:45:11.712Z,17.57
2018-08-17T00:46:12.672Z,17.60
2018-08-17T00:47:11.019Z,17.51
2018-08-17T00:48:11.811Z,17.51
2018-08-17T00:49:11.716Z,17.47
2018-08-17T00:50:14.142Z,17.45
2018-08-17T00:52:49.581Z,17.46
2018-08-17T00:53:46.520Z,17.46
2018-08-17T00:54:43.068Z,17.45
2018-08-17T00:57:15.318Z,17.49
2018-08-17T00:58:15.325Z,17.46
2018-08-17T00:59:14.822Z,17.39
2018-08-17T01:00:21.840Z,17.45
2018-08-17T01:02:47.219Z,17.38
2018-08-17T01:03:47.226Z,17.28
2018-08-17T01:04:46.730Z,17.35
2018-08-17T01:07:39.228Z,17.33
2018-08-17T01:08:18.994Z,17.28
2018-08-17T01:09:18.994Z,17.43
2018-08-17T01:10:40.494Z,17.47
2018-08-17T01:11:19.491Z,17.46
2018-08-17T01:12:40.493Z,17.49
2018-08-17T01:13:18.971Z,17.45
2018-08-17T01:14:21.994Z,17.42
2018-08-17T01:15:21.926Z,17.42
2018-08-17T01:16:19.999Z,17.46
2018-08-17T01:17:19.994Z,17.46
2018-08-17T01:19:52.240Z,17.39
2018-08-17T01:20:55.679Z,17.39
2018-08-17T01:21:53.253Z,17.43
2018-08-17T01:22:51.841Z,17.53
2018-08-17T01:25:44.345Z,17.33
2018-08-17T01:26:24.103Z,17.28
2018-08-17T01:28:55.319Z,17.36
2018-08-17T01:29:56.254Z,17.24
2018-08-17T01:30:57.717Z,17.24
2018-08-17T01:31:57.687Z,17.27
2018-08-17T01:32:56.262Z,17.21
2018-08-17T01:35:28.017Z,17.10
2018-08-17T01:36:28.027Z,17.09
2018-08-17T01:37:28.032Z,17.15
2018-08-17T01:38:49.958Z,17.15
2018-08-17T01:39:48.673Z,17.12
2018-08-17T01:40:27.759Z,17.10
2018-08-17T01:41:42.524Z,17.15
2018-08-17T01:42:28.525Z,17.03
2018-08-17T01:43:49.132Z,17.10
2018-08-17T01:44:50.024Z,17.05
2018-08-17T01:45:29.030Z,17.10
2018-08-17T01:46:50.024Z,17.02
2018-08-17T01:49:21.775Z,16.92
2018-08-17T01:50:00.785Z,16.95
2018-08-17T01:51:00.791Z,16.91
2018-08-17T01:52:01.283Z,16.92
2018-08-17T01:53:00.508Z,16.98
2018-08-17T01:54:22.282Z,16.90
2018-08-17T01:55:01.283Z,16.90
2018-08-17T01:56:02.714Z,16.96
2018-08-17T01:57:28.789Z,16.95
2018-08-17T01:59:54.300Z,16.96
2018-08-17T02:00:40.295Z,17.02
2018-08-17T02:01:47.297Z,16.96
2018-08-17T02:04:19.052Z,16.95
2018-08-17T02:05:05.051Z,16.96
2018-08-17T02:06:05.043Z,16.95
2018-08-17T02:07:04.654Z,16.87
2018-08-17T02:08:07.508Z,16.80
2018-08-17T02:09:05.557Z,16.78
2018-08-17T02:11:39.225Z,16.84
2018-08-17T02:12:39.228Z,16.75
2018-08-17T02:13:37.255Z,16.81
2018-08-17T02:14:37.732Z,16.82
2018-08-17T02:15:36.974Z,16.85
2018-08-17T02:16:37.735Z,16.90
2018-08-17T02:17:37.784Z,16.85
2018-08-17T02:19:05.229Z,16.85
2018-08-17T02:19:44.232Z,16.84
2018-08-17T02:21:00.664Z,16.84
2018-08-17T02:21:38.228Z,16.85
2018-08-17T02:22:40.727Z,16.87
2018-08-17T02:26:42.025Z,16.75
2018-08-17T02:27:42.034Z,16.69
2018-08-17T02:29:02.499Z,16.84
2018-08-17T02:29:44.530Z,16.81
2018-08-17T02:32:38.380Z,16.81
2018-08-17T02:33:15.394Z,16.80
2018-08-17T02:34:13.921Z,16.77
2018-08-17T02:35:13.527Z,16.77
2018-08-17T02:37:45.777Z,16.69
2018-08-17T02:38:45.778Z,16.67
2018-08-17T02:39:45.315Z,16.72
2018-08-17T02:40:46.277Z,16.73
2018-08-17T02:41:46.276Z,16.75
2018-08-17T02:42:46.279Z,16.66
2018-08-17T02:43:48.781Z,16.67
2018-08-17T02:44:45.882Z,16.77
2018-08-17T02:45:46.784Z,16.65
2018-08-17T02:47:00.781Z,16.63
2018-08-17T02:47:46.775Z,16.55
2018-08-17T02:48:53.281Z,16.50
2018-08-17T02:49:46.509Z,16.51
2018-08-17T02:50:47.208Z,16.47
2018-08-17T02:51:47.275Z,16.54
2018-08-17T02:53:01.281Z,16.57
2018-08-17T02:54:08.779Z,16.54
2018-08-17T02:54:47.014Z,16.57
2018-08-17T02:55:47.774Z,16.50
2018-08-17T02:56:47.760Z,16.54
2018-08-17T02:59:19.522Z,16.60
2018-08-17T03:00:19.513Z,16.60
2018-08-17T03:01:19.521Z,16.52
2018-08-17T03:02:20.018Z,16.66
2018-08-17T03:03:41.013Z,16.65
2018-08-17T03:04:20.020Z,16.66
2018-08-17T03:05:20.013Z,16.63
2018-08-17T03:06:20.514Z,16.70
2018-08-17T03:07:20.520Z,16.55
2018-08-17T03:08:20.515Z,16.59
2018-08-17T03:09:20.513Z,16.55
2018-08-17T03:10:21.020Z,16.48
2018-08-17T03:11:21.968Z,16.51
2018-08-17T03:12:20.319Z,16.52
2018-08-17T03:13:21.013Z,16.48
2018-08-17T03:14:21.014Z,16.50
2018-08-17T03:15:21.516Z,16.51
2018-08-17T03:16:21.519Z,16.45
2018-08-17T03:17:21.516Z,16.50
2018-08-17T03:18:21.520Z,16.50
2018-08-17T03:19:22.013Z,16.37
2018-08-17T03:21:53.396Z,16.48
2018-08-17T03:23:14.469Z,16.54
2018-08-17T03:23:53.412Z,16.52
2018-08-17T03:24:53.835Z,16.47
2018-08-17T03:25:53.090Z,16.45
2018-08-17T03:28:27.356Z,16.47
2018-08-17T03:29:25.412Z,16.52
2018-08-17T03:30:28.400Z,16.50
2018-08-17T03:32:58.606Z,16.47
2018-08-17T03:33:57.140Z,16.36
2018-08-17T03:34:56.625Z,16.33
2018-08-17T03:36:11.639Z,16.40
2018-08-17T03:36:57.638Z,16.27
2018-08-17T03:39:29.176Z,16.29
2018-08-17T03:40:29.182Z,16.27
2018-08-17T03:41:29.176Z,16.25
2018-08-17T03:44:02.936Z,16.32
2018-08-17T03:45:00.943Z,16.29
2018-08-17T03:46:00.941Z,16.16
2018-08-17T03:48:31.982Z,16.22
2018-08-17T03:49:32.704Z,16.25
2018-08-17T03:50:32.706Z,16.18
2018-08-17T03:51:35.639Z,16.10
2018-08-17T03:52:39.207Z,16.07
2018-08-17T03:53:54.645Z,16.10
2018-08-17T03:54:33.211Z,16.11
2018-08-17T03:55:34.647Z,16.10
2018-08-17T03:56:32.753Z,16.16
2018-08-17T03:57:39.707Z,16.27
2018-08-17T03:58:33.714Z,16.27
2018-08-17T03:59:33.709Z,16.16
2018-08-17T04:00:39.708Z,16.07
2018-08-17T04:03:19.455Z,16.10
2018-08-17T04:04:05.466Z,16.11
2018-08-17T04:05:26.465Z,16.17
2018-08-17T04:06:05.960Z,16.22
2018-08-17T04:07:29.893Z,16.23
2018-08-17T04:09:58.461Z,16.29
2018-08-17T04:14:00.662Z,16.36
2018-08-17T04:14:39.764Z,16.27
2018-08-17T04:15:41.387Z,16.29
2018-08-17T04:18:33.131Z,16.25
2018-08-17T04:19:11.487Z,16.32
2018-08-17T04:20:12.139Z,16.27
2018-08-17T04:21:26.645Z,16.33
2018-08-17T04:22:14.638Z,16.32
2018-08-17T04:23:12.638Z,16.29
2018-08-17T04:24:12.641Z,16.32
2018-08-17T04:27:05.386Z,16.29
2018-08-17T04:29:42.895Z,16.36
2018-08-17T04:30:15.900Z,16.25
2018-08-17T04:31:21.906Z,16.25
2018-08-17T04:32:36.488Z,16.29
2018-08-17T04:33:16.404Z,16.29
2018-08-17T04:34:17.867Z,16.27
2018-08-17T04:35:16.406Z,16.22
2018-08-17T04:36:39.903Z,16.23
2018-08-17T04:39:02.292Z,16.25
2018-08-17T04:40:09.294Z,16.34
2018-08-17T04:40:50.256Z,16.29
2018-08-17T04:43:20.011Z,16.40
2018-08-17T04:44:20.019Z,16.40
2018-08-17T04:45:20.019Z,16.41
2018-08-17T04:46:20.518Z,16.36
2018-08-17T04:47:20.522Z,16.37
2018-08-17T04:48:20.528Z,16.40
2018-08-17T04:49:20.605Z,16.45
2018-08-17T04:51:52.291Z,16.50
2018-08-17T04:52:52.300Z,16.42
2018-08-17T04:53:52.290Z,16.48
2018-08-17T04:54:53.224Z,16.45
2018-08-17T04:55:51.976Z,16.52
2018-08-17T04:58:23.857Z,16.47
2018-08-17T04:59:23.948Z,16.54
2018-08-17T05:00:30.760Z,16.50
2018-08-17T05:04:33.716Z,16.72
2018-08-17T05:05:41.725Z,16.67
2018-08-17T05:06:49.719Z,16.66
2018-08-17T05:09:05.593Z,16.82
2018-08-17T05:09:59.475Z,16.90
2018-08-17T05:10:59.475Z,16.95
2018-08-17T05:13:31.220Z,17.05
2018-08-17T05:14:32.166Z,17.02
2018-08-17T05:15:31.234Z,17.12
2018-08-17T05:16:31.227Z,17.07
2018-08-17T05:19:02.243Z,17.05
2018-08-17T05:20:02.980Z,17.10
2018-08-17T05:21:02.980Z,17.05
2018-08-17T05:23:48.740Z,17.06
2018-08-17T05:24:35.666Z,17.07
2018-08-17T05:25:34.736Z,17.02
2018-08-17T05:28:07.454Z,16.99
2018-08-17T05:29:06.487Z,16.99
2018-08-17T05:30:06.497Z,17.02
2018-08-17T05:32:44.258Z,16.88
2018-08-17T05:33:52.264Z,17.07
2018-08-17T05:34:40.264Z,17.06
2018-08-17T05:35:37.862Z,17.03
2018-08-17T05:39:43.855Z,17.15
2018-08-17T05:40:41.865Z,17.15
2018-08-17T05:41:44.317Z,17.15
2018-08-17T05:42:42.362Z,17.10
2018-08-17T05:44:02.570Z,17.17
2018-08-17T05:44:42.362Z,17.15
2018-08-17T05:45:42.364Z,17.27
2018-08-17T05:47:03.862Z,17.33
2018-08-17T05:47:42.090Z,17.28
2018-08-17T05:48:42.869Z,17.27
2018-08-17T05:49:42.862Z,17.38
2018-08-17T05:50:43.363Z,17.36
2018-08-17T05:51:44.335Z,17.42
2018-08-17T05:53:04.368Z,17.43
2018-08-17T05:53:42.846Z,17.45
2018-08-17T05:54:42.946Z,17.51
2018-08-17T05:56:05.863Z,17.57
2018-08-17T05:56:43.300Z,17.62
2018-08-17T05:57:43.862Z,17.65
2018-08-17T05:59:04.462Z,17.74
2018-08-17T06:00:07.368Z,17.68
2018-08-17T06:00:44.363Z,17.74
2018-08-17T06:01:44.363Z,17.76
2018-08-17T06:03:11.864Z,17.89
2018-08-17T06:05:18.782Z,17.91
2018-08-17T06:06:15.882Z,18.01
2018-08-17T06:09:02.131Z,18.21
2018-08-17T06:09:48.148Z,18.31
2018-08-17T06:11:09.407Z,18.25
2018-08-17T06:11:54.638Z,18.32
2018-08-17T06:13:02.637Z,18.39
2018-08-17T06:13:47.993Z,18.46
2018-08-17T06:14:48.636Z,18.44
2018-08-17T06:15:49.136Z,18.39
2018-08-17T06:17:10.068Z,18.54
2018-08-17T06:17:55.160Z,18.59
2018-08-17T06:18:49.136Z,18.54
2018-08-17T06:21:41.337Z,18.68
2018-08-17T06:22:44.291Z,18.69
2018-08-17T06:23:21.288Z,18.68
2018-08-17T06:24:43.286Z,18.68
2018-08-17T06:25:21.288Z,18.82
2018-08-17T06:27:53.043Z,18.84
2018-08-17T06:30:24.549Z,18.89
2018-08-17T06:31:24.556Z,19.02
2018-08-17T06:32:24.553Z,19.06
2018-08-17T06:34:59.257Z,19.07
2018-08-17T06:37:33.832Z,19.23
2018-08-17T06:38:41.840Z,19.30
2018-08-17T06:39:48.839Z,19.45
2018-08-17T06:40:49.351Z,19.47
2018-08-17T06:41:27.600Z,19.55
2018-08-17T06:42:28.339Z,19.64
2018-08-17T06:43:48.795Z,19.68
2018-08-17T06:46:00.059Z,19.86
2018-08-17T06:47:00.067Z,19.94
2018-08-17T06:48:00.069Z,20.02
2018-08-17T06:49:02.571Z,20.02
2018-08-17T06:50:00.574Z,20.04
2018-08-17T06:51:14.566Z,20.10
2018-08-17T06:52:00.570Z,20.22
2018-08-17T06:53:21.150Z,20.31
2018-08-17T06:54:22.067Z,20.23
2018-08-17T06:55:15.066Z,20.37
2018-08-17T06:56:01.066Z,20.34
2018-08-17T06:57:15.659Z,20.44
2018-08-17T06:58:00.825Z,20.56
2018-08-17T06:59:07.571Z,20.53
2018-08-17T07:00:15.567Z,20.54
2018-08-17T07:01:23.012Z,20.75
2018-08-17T07:02:01.244Z,20.71
2018-08-17T07:03:02.067Z,20.73
2018-08-17T07:04:02.067Z,20.83
2018-08-17T07:05:03.499Z,20.93
2018-08-17T07:06:01.669Z,20.97
2018-08-17T07:07:03.498Z,21.05
2018-08-17T07:09:48.061Z,21.22
2018-08-17T07:12:11.570Z,21.40
2018-08-17T07:13:05.575Z,21.51
2018-08-17T07:14:08.055Z,21.56
2018-08-17T07:15:05.171Z,21.58
2018-08-17T07:16:08.077Z,21.71
2018-08-17T07:17:20.079Z,21.73
2018-08-17T07:18:28.007Z,21.90
2018-08-17T07:20:37.839Z,22.01
2018-08-17T07:21:37.211Z,22.06
2018-08-17T07:22:39.311Z,22.24
2018-08-17T07:23:58.405Z,22.19
2018-08-17T07:24:44.339Z,22.20
2018-08-17T07:27:30.767Z,22.26
2018-08-17T07:29:43.223Z,22.38
2018-08-17T07:30:41.291Z,22.46
2018-08-17T07:31:41.292Z,22.45
2018-08-17T07:33:02.788Z,22.51
2018-08-17T07:33:41.788Z,22.49
2018-08-17T07:37:44.012Z,22.70
2018-08-17T07:38:44.724Z,22.75
2018-08-17T07:39:45.161Z,22.79
2018-08-17T07:40:45.227Z,22.82
2018-08-17T07:41:45.309Z,22.84
2018-08-17T07:43:12.225Z,22.84
2018-08-17T07:43:46.179Z,22.81
2018-08-17T07:44:45.726Z,22.86
2018-08-17T07:46:10.657Z,22.94
2018-08-17T07:46:45.073Z,22.91
2018-08-17T07:47:45.804Z,22.89
2018-08-17T07:49:00.226Z,22.94
2018-08-17T07:49:46.228Z,23.09
2018-08-17T07:50:45.575Z,22.97
2018-08-17T07:51:46.658Z,23.22
2018-08-17T07:53:07.728Z,23.35
2018-08-17T07:55:19.409Z,23.59
2018-08-17T07:56:19.480Z,23.56
2018-08-17T07:57:19.411Z,23.64
2018-08-17T07:58:19.911Z,23.77
2018-08-17T07:59:19.911Z,23.86
2018-08-17T08:00:19.917Z,23.86
2018-08-17T08:01:33.911Z,24.00
2018-08-17T08:02:40.500Z,24.06
2018-08-17T08:03:20.419Z,24.15
2018-08-17T08:04:20.411Z,24.26
2018-08-17T08:05:20.418Z,24.41
2018-08-17T08:07:52.169Z,24.44
2018-08-17T08:08:52.187Z,24.51
2018-08-17T08:09:51.647Z,24.42
2018-08-17T08:10:52.678Z,24.44
2018-08-17T08:11:54.678Z,24.52
2018-08-17T08:12:52.033Z,24.39
2018-08-17T08:13:53.677Z,24.37
2018-08-17T08:14:52.280Z,24.41
2018-08-17T08:16:13.396Z,24.42
2018-08-17T08:17:14.205Z,24.48
2018-08-17T08:19:26.173Z,24.33
2018-08-17T08:20:28.756Z,24.31
2018-08-17T08:21:24.724Z,24.31
2018-08-17T08:22:48.241Z,24.34
2018-08-17T08:23:26.169Z,24.33
2018-08-17T08:24:52.229Z,24.42
2018-08-17T08:27:10.746Z,24.48
2018-08-17T08:27:56.753Z,24.48
2018-08-17T08:28:58.185Z,24.56
2018-08-17T08:30:18.254Z,24.64
2018-08-17T08:31:11.336Z,24.71
2018-08-17T08:31:59.194Z,24.84
2018-08-17T08:32:57.268Z,25.01
2018-08-17T08:34:20.776Z,25.11
2018-08-17T08:35:11.754Z,25.04
2018-08-17T08:37:50.262Z,25.29
2018-08-17T08:38:29.346Z,25.30
2018-08-17T08:39:44.221Z,25.29
2018-08-17T08:40:50.767Z,25.38
2018-08-17T08:43:01.163Z,25.29
2018-08-17T08:44:22.168Z,25.26
2018-08-17T08:45:22.213Z,25.38
2018-08-17T08:47:32.947Z,25.67
2018-08-17T08:48:32.944Z,25.83
2018-08-17T08:49:32.945Z,25.69
2018-08-17T08:50:56.437Z,25.79
2018-08-17T08:52:32.766Z,25.81
2018-08-17T08:53:54.442Z,25.94
2018-08-17T08:54:34.887Z,26.09
2018-08-17T08:55:54.081Z,26.09
2018-08-17T08:56:56.377Z,26.04
2018-08-17T08:57:33.947Z,26.17
2018-08-17T08:58:33.954Z,26.20
2018-08-17T08:59:38.877Z,26.20
2018-08-17T09:00:33.671Z,26.27
2018-08-17T09:01:33.792Z,26.36
2018-08-17T09:02:33.885Z,26.47
2018-08-17T09:03:48.951Z,26.60
2018-08-17T09:04:57.945Z,26.76
2018-08-17T09:05:36.377Z,26.64
2018-08-17T09:06:56.944Z,26.68
2018-08-17T09:07:34.424Z,26.68
2018-08-17T09:08:55.520Z,26.65
2018-08-17T09:09:35.446Z,26.72
2018-08-17T09:10:41.450Z,26.83
2018-08-17T09:11:35.445Z,26.86
2018-08-17T09:12:35.445Z,26.86
2018-08-17T09:15:07.217Z,26.94
2018-08-17T09:16:21.220Z,26.86
2018-08-17T09:17:08.223Z,26.81
2018-08-17T09:18:34.723Z,26.97
2018-08-17T09:20:39.180Z,26.76
2018-08-17T09:22:00.134Z,26.79
2018-08-17T09:23:00.134Z,26.71
2018-08-17T09:23:54.627Z,26.73
2018-08-17T09:25:00.625Z,26.94
2018-08-17T09:25:45.626Z,26.90
2018-08-17T09:26:39.626Z,26.73
2018-08-17T09:29:11.427Z,26.72
2018-08-17T09:30:11.438Z,26.73
2018-08-17T09:31:10.899Z,26.79
2018-08-17T09:32:11.006Z,26.93
2018-08-17T09:33:11.919Z,26.97
2018-08-17T09:34:25.923Z,27.03
2018-08-17T09:35:11.403Z,27.11
2018-08-17T09:36:32.492Z,27.12
2018-08-17T09:37:12.433Z,27.09
2018-08-17T09:39:44.791Z,27.16
2018-08-17T09:40:43.859Z,27.18
2018-08-17T09:41:49.921Z,27.25
2018-08-17T09:42:44.359Z,27.34
2018-08-17T09:44:05.359Z,27.31
2018-08-17T09:44:44.360Z,27.43
2018-08-17T09:45:44.362Z,27.55
2018-08-17T09:46:58.860Z,27.55
2018-08-17T09:49:15.552Z,27.61
2018-08-17T09:53:19.262Z,27.72
2018-08-17T09:54:20.246Z,27.74
2018-08-17T09:55:19.273Z,27.81
2018-08-17T09:56:44.702Z,27.88
2018-08-17T09:59:11.411Z,28.03
2018-08-17T09:59:51.168Z,28.03
2018-08-17T10:00:51.169Z,27.99
2018-08-17T10:02:05.674Z,27.99
2018-08-17T10:02:50.899Z,28.08
2018-08-17T10:03:52.652Z,28.13
2018-08-17T10:04:51.169Z,28.13
2018-08-17T10:06:15.168Z,28.15
2018-08-17T10:07:13.168Z,28.25
2018-08-17T10:07:52.169Z,28.14
2018-08-17T10:08:51.659Z,28.13
2018-08-17T10:09:51.781Z,28.13
2018-08-17T10:11:15.138Z,28.24
2018-08-17T10:11:51.990Z,28.17
2018-08-17T10:12:52.669Z,28.21
2018-08-17T10:13:53.636Z,28.24
2018-08-17T10:14:52.250Z,28.36
2018-08-17T10:16:14.174Z,28.32
2018-08-17T10:16:54.633Z,28.40
2018-08-17T10:17:53.169Z,28.18
2018-08-17T10:18:53.684Z,28.25
2018-08-17T10:19:52.914Z,28.23
2018-08-17T10:20:53.708Z,28.15
2018-08-17T10:21:53.913Z,28.17
2018-08-17T10:23:15.173Z,28.15
2018-08-17T10:23:53.408Z,28.27
2018-08-17T10:24:53.513Z,28.24
2018-08-17T10:25:54.169Z,28.24
2018-08-17T10:26:54.696Z,28.21
2018-08-17T10:27:54.672Z,28.38
2018-08-17T10:28:54.670Z,28.30
2018-08-17T10:29:54.161Z,28.20
2018-08-17T10:30:54.273Z,28.06
2018-08-17T10:32:01.177Z,27.95
2018-08-17T10:37:36.558Z,28.54
2018-08-17T10:38:29.617Z,28.58
2018-08-17T10:39:44.117Z,28.58
2018-08-17T10:40:32.125Z,28.57
2018-08-17T10:41:59.049Z,28.70
2018-08-17T10:42:31.558Z,28.61
2018-08-17T10:43:29.731Z,28.69
2018-08-17T10:47:33.444Z,28.74
2018-08-17T10:48:32.807Z,28.69
2018-08-17T10:49:33.442Z,28.70
2018-08-17T10:50:54.965Z,28.80
2018-08-17T10:51:33.189Z,28.82
2018-08-17T10:52:33.949Z,28.70
2018-08-17T10:53:55.442Z,28.73
2018-08-17T10:54:34.442Z,28.64
2018-08-17T10:55:34.461Z,28.58
2018-08-17T10:56:34.442Z,28.73
2018-08-17T10:57:34.543Z,28.79
2018-08-17T10:58:36.942Z,28.82
2018-08-17T10:59:34.942Z,28.91
2018-08-17T11:00:36.949Z,28.89
2018-08-17T11:01:50.383Z,29.05
2018-08-17T11:04:35.101Z,29.10
2018-08-17T11:08:11.786Z,29.17
2018-08-17T11:09:32.793Z,29.02
2018-08-17T11:10:11.782Z,28.82
2018-08-17T11:11:11.266Z,28.98
2018-08-17T11:12:12.285Z,28.95
2018-08-17T11:13:33.384Z,28.85
2018-08-17T11:14:12.279Z,28.82
2018-08-17T11:15:12.279Z,29.02
2018-08-17T11:16:33.783Z,29.08
2018-08-17T11:17:12.781Z,29.12
2018-08-17T11:18:35.219Z,29.15
2018-08-17T11:19:12.211Z,29.29
2018-08-17T11:22:05.521Z,29.42
2018-08-17T11:22:44.542Z,29.58
2018-08-17T11:23:44.532Z,29.52
2018-08-17T11:24:44.139Z,29.60
2018-08-17T11:25:45.040Z,29.51
2018-08-17T11:26:44.415Z,29.51
2018-08-17T11:27:44.522Z,29.48
2018-08-17T11:28:45.529Z,29.63
2018-08-17T11:29:44.763Z,29.66
2018-08-17T11:30:45.534Z,29.67
2018-08-17T11:33:17.205Z,29.81
2018-08-17T11:34:17.231Z,29.92
2018-08-17T11:35:17.212Z,29.97
2018-08-17T11:36:38.705Z,30.10
2018-08-17T11:37:38.713Z,30.23
2018-08-17T11:38:19.707Z,30.44
2018-08-17T11:39:17.707Z,30.44
2018-08-17T11:40:17.318Z,30.53
2018-08-17T11:41:24.350Z,30.30
2018-08-17T11:42:32.217Z,30.56
2018-08-17T11:43:18.207Z,30.81
2018-08-17T11:44:41.681Z,31.23
2018-08-17T11:47:10.273Z,32.39
2018-08-17T11:47:55.965Z,32.85
2018-08-17T11:48:58.897Z,32.85
2018-08-17T11:52:53.189Z,33.28
2018-08-17T11:53:52.603Z,33.17
2018-08-17T11:54:52.664Z,33.17
2018-08-17T11:56:13.758Z,33.57
2018-08-17T11:56:53.686Z,33.78
2018-08-17T11:59:25.250Z,34.03
2018-08-17T12:00:24.607Z,34.36
2018-08-17T12:01:47.694Z,34.64
2018-08-17T12:02:31.774Z,35.05
2018-08-17T12:03:25.017Z,35.39
2018-08-17T12:04:27.207Z,35.29
2018-08-17T12:08:30.805Z,35.77
2018-08-17T12:09:30.777Z,35.05
2018-08-17T12:10:29.343Z,34.23
2018-08-17T12:11:52.343Z,34.73
2018-08-17T12:14:02.756Z,34.21
2018-08-17T12:16:33.234Z,34.80
2018-08-17T12:17:46.302Z,34.88
2018-08-17T12:18:32.308Z,35.12
2018-08-17T12:19:46.803Z,35.40
2018-08-17T12:20:56.234Z,35.66
2018-08-17T12:21:32.802Z,35.77
2018-08-17T12:22:53.802Z,35.27
2018-08-17T12:23:53.402Z,34.23
2018-08-17T12:24:32.695Z,34.18
2018-08-17T12:25:33.305Z,34.31
2018-08-17T12:26:33.302Z,34.46
2018-08-17T12:27:32.940Z,34.33
2018-08-17T12:30:05.275Z,35.55
2018-08-17T12:31:05.229Z,35.84
2018-08-17T12:35:29.045Z,35.15
2018-08-17T12:36:09.489Z,35.18
2018-08-17T12:37:35.519Z,35.50
2018-08-17T12:39:45.848Z,36.25
2018-08-17T12:40:39.241Z,36.34
2018-08-17T12:43:10.822Z,36.86
2018-08-17T12:44:11.543Z,37.15
2018-08-17T12:46:44.647Z,36.89
2018-08-17T12:50:47.155Z,37.69
2018-08-17T12:51:46.180Z,37.87
2018-08-17T12:52:46.227Z,37.84
2018-08-17T12:56:49.476Z,37.70
2018-08-17T12:58:51.424Z,38.45
2018-08-17T13:00:11.004Z,38.63
2018-08-17T13:02:21.298Z,39.12
2018-08-17T13:03:27.311Z,39.46
2018-08-17T13:04:21.301Z,39.24
2018-08-17T13:05:21.803Z,38.47
2018-08-17T13:06:22.736Z,38.18
2018-08-17T13:07:21.808Z,37.80
2018-08-17T13:08:21.803Z,37.80
2018-08-17T13:09:23.758Z,37.63
2018-08-17T13:10:43.314Z,37.33
2018-08-17T13:11:22.302Z,37.63
2018-08-17T13:12:22.305Z,37.99
2018-08-17T13:13:51.234Z,38.47
2018-08-17T13:14:22.074Z,38.90
2018-08-17T13:15:22.801Z,39.24
2018-08-17T13:16:22.803Z,39.27
2018-08-17T13:17:44.313Z,39.85
2018-08-17T13:19:54.041Z,36.97
2018-08-17T13:20:54.825Z,35.98
2018-08-17T13:21:55.273Z,35.34
2018-08-17T13:22:55.301Z,34.91
2018-08-17T13:25:26.717Z,34.06
2018-08-17T13:26:47.724Z,33.92
2018-08-17T13:27:32.724Z,34.72
2018-08-17T13:28:54.224Z,35.32
2018-08-17T13:29:47.528Z,35.62
2018-08-17T13:32:19.043Z,36.12
2018-08-17T13:34:44.377Z,35.73
2018-08-17T13:35:51.337Z,36.08
2018-08-17T13:36:30.338Z,35.78
2018-08-17T13:37:36.835Z,35.09
2018-08-17T13:38:30.849Z,34.67
2018-08-17T13:39:30.843Z,34.09
2018-08-17T13:42:01.815Z,33.26
2018-08-17T13:43:23.535Z,32.51
2018-08-17T13:44:03.541Z,32.47
2018-08-17T13:45:03.038Z,32.76
2018-08-17T13:47:34.477Z,32.73
2018-08-17T13:48:34.537Z,32.63
2018-08-17T13:49:34.478Z,32.21
2018-08-17T13:50:55.977Z,32.50
2018-08-17T13:51:48.978Z,32.14
2018-08-17T13:52:55.366Z,32.12
2018-08-17T13:53:34.980Z,33.14
2018-08-17T13:56:12.764Z,34.86
2018-08-17T13:57:07.706Z,35.62
2018-08-17T13:58:06.771Z,36.25
2018-08-17T14:00:52.558Z,36.57
2018-08-17T14:01:40.564Z,36.96
2018-08-17T14:03:03.504Z,37.34
2018-08-17T14:03:39.067Z,38.00
2018-08-17T14:04:39.067Z,37.82
2018-08-17T14:06:00.065Z,38.06
2018-08-17T14:06:39.072Z,37.95
2018-08-17T14:07:38.691Z,37.93
2018-08-17T14:08:38.845Z,38.36
2018-08-17T14:09:41.029Z,38.28
2018-08-17T14:11:03.997Z,37.42
2018-08-17T14:11:40.068Z,37.43
2018-08-17T14:12:39.434Z,37.81
2018-08-17T14:14:01.065Z,37.91
2018-08-17T14:16:13.328Z,37.35
2018-08-17T14:18:49.362Z,36.90
2018-08-17T14:19:42.742Z,37.25
2018-08-17T14:20:43.370Z,36.50
2018-08-17T14:23:35.424Z,36.33
2018-08-17T14:24:43.124Z,36.23
2018-08-17T14:25:18.601Z,36.35
2018-08-17T14:26:42.670Z,36.60
2018-08-17T14:27:15.671Z,36.74
2018-08-17T14:28:15.666Z,36.74
2018-08-17T14:29:15.184Z,36.87
2018-08-17T14:33:18.201Z,36.91
2018-08-17T14:34:18.947Z,36.96
2018-08-17T14:35:23.419Z,36.78
2018-08-17T14:37:50.732Z,37.09
2018-08-17T14:38:50.738Z,36.94
2018-08-17T14:40:12.246Z,36.22
2018-08-17T14:41:12.254Z,35.92
2018-08-17T14:43:51.115Z,35.56
2018-08-17T14:44:43.099Z,35.39
2018-08-17T14:48:25.699Z,35.18
2018-08-17T14:49:40.410Z,34.67
2018-08-17T14:50:48.409Z,34.49
2018-08-17T14:51:47.025Z,34.24
2018-08-17T14:53:58.300Z,33.87
2018-08-17T14:54:59.235Z,33.63
2018-08-17T14:57:30.004Z,33.34
2018-08-17T14:58:52.480Z,33.20
2018-08-17T14:59:32.007Z,33.17
2018-08-17T15:00:57.509Z,33.21
2018-08-17T15:03:15.946Z,32.77
2018-08-17T15:04:02.946Z,32.58
2018-08-17T15:05:01.952Z,32.44
2018-08-17T15:07:39.745Z,32.43
2018-08-17T15:08:54.071Z,32.44
2018-08-17T15:09:33.183Z,32.44
2018-08-17T15:13:36.964Z,32.49
2018-08-17T15:14:37.912Z,32.35
2018-08-17T15:15:36.921Z,32.22
2018-08-17T15:16:58.420Z,32.25
2018-08-17T15:17:36.666Z,32.24
2018-08-17T15:18:43.460Z,32.17
2018-08-17T15:19:36.952Z,31.98
2018-08-17T15:20:58.917Z,31.98
2018-08-17T15:21:37.923Z,31.71
2018-08-17T15:22:59.850Z,31.67
2018-08-17T15:23:37.404Z,31.60
2018-08-17T15:24:38.420Z,31.64
2018-08-17T15:25:52.428Z,31.47
2018-08-17T15:26:37.781Z,31.40
2018-08-17T15:27:38.418Z,31.41
2018-08-17T15:28:39.022Z,31.41
2018-08-17T15:29:40.920Z,31.38
2018-08-17T15:30:38.918Z,31.38
2018-08-17T15:31:38.407Z,31.23
2018-08-17T15:32:39.418Z,31.13
2018-08-17T15:33:40.852Z,31.03
2018-08-17T15:34:39.418Z,30.93
2018-08-17T15:35:41.851Z,30.94
2018-08-17T15:36:38.906Z,30.78
2018-08-17T15:38:00.919Z,30.70
2018-08-17T15:38:39.927Z,30.70
2018-08-17T15:39:39.919Z,30.61
2018-08-17T15:40:39.404Z,30.61
2018-08-17T15:41:40.421Z,30.54
2018-08-17T15:42:40.427Z,30.44
2018-08-17T15:43:40.421Z,30.40
2018-08-17T15:44:42.426Z,30.38
2018-08-17T15:45:40.919Z,30.22
2018-08-17T15:46:40.920Z,30.10
2018-08-17T15:48:01.920Z,30.06
2018-08-17T15:48:40.920Z,30.10
2018-08-17T15:49:41.450Z,30.06
2018-08-17T15:51:01.867Z,30.04
2018-08-17T15:51:41.420Z,29.91
2018-08-17T15:52:41.422Z,29.91
2018-08-17T15:53:41.924Z,29.89
2018-08-17T15:54:41.921Z,29.82
2018-08-17T15:55:41.920Z,29.82
2018-08-17T15:56:41.920Z,29.82
2018-08-17T15:57:41.576Z,29.84
2018-08-17T15:59:02.647Z,29.85
2018-08-17T15:59:42.427Z,29.82
2018-08-17T16:01:05.410Z,29.79
2018-08-17T16:02:11.395Z,29.89
2018-08-17T16:02:42.927Z,29.76
2018-08-17T16:03:42.923Z,29.67
2018-08-17T16:04:43.919Z,29.67
2018-08-17T16:05:49.421Z,29.62
2018-08-17T16:06:42.655Z,29.52
2018-08-17T16:07:43.420Z,29.58
2018-08-17T16:08:43.420Z,29.47
2018-08-17T16:10:43.921Z,29.57
2018-08-17T16:11:50.919Z,29.41
2018-08-17T16:12:43.920Z,29.42
2018-08-17T16:13:44.425Z,29.21
2018-08-17T16:14:44.421Z,29.21
2018-08-17T16:15:44.421Z,29.12
2018-08-17T16:16:44.422Z,29.11
2018-08-17T16:17:44.918Z,29.02